aviador You're here:

KLAF Decoded Metar

LAFAYETTE in IN, USA
Report Time2017-12-16 02:54:00
UTC Time2017-12-16 03:30:55
Flight Rules vfr VFR
Wind230° at 04 kt
W.Decomp.*RWY 23: 4.0 kt HW 0.1 kt RCW
RWY 28: 2.6 kt HW 3 kt LCW
W.Rank230° ranks 7
Current wind is below 230° avg. (7.1)
Visibility9999 m
Phenomena:N/A
Clouds:Overcast 060 Hf
Expected CloudBase > 2,400 ft AGL from Temp-Dew spread
Ceiling6,000 ft
Temp00°C (ISA -14)
Dew Point-6°C (64% RH)
AAT-4.2°C
QNH1016 hPa
Density Alt-1,135 ft
Elevation597 ft
Report Wrong Elevation
Raw Report
KLAF 160254Z AUTO 23004KT 10SM OVC060 00/M06 A3000 RMK AO2 SLP167
T00001061 50000=

Extra information for KLAF:More info

Metar Taf Metar & Taf Last 4 Metars F.Rules Stats Wind Profile Meteogram Temp Stats Airport Information Weather charts Add Link Nearby VenuesMetar ALERT Operation Metar Decoded Social comments

AIRNAV info for KLAF